Time;durP1;ratioP1;P1;durP2;ratioP2;P2;SDS_P1;SDS_P2;PMS_P1;PMS_P2;Temp;Humidity;BMP_temperature;BMP_pressure;BME280_temperature;BME280_humidity;BME280_pressure;Samples;Min_cycle;Max_cycle;Signal;HPM_P1;HPM_P2
2021/12/07 00:01:59;;;;;;;;;;;7.80;99.90;;;7.28;83.31;100254.41;5094996;28;19966;-69
2021/12/07 00:04:28;;;;;;;;;;;7.80;99.90;;;7.94;83.26;100390.25;5094946;28;20319;-69
2021/12/07 00:06:56;;;;;;;;;;;7.90;99.90;;;7.92;82.23;100366.59;5094226;28;20365;-69
2021/12/07 00:09:26;;;;;;;;;;;7.90;99.90;;;7.85;81.28;100348.16;5094468;28;19991;-68
2021/12/07 00:11:56;;;;;;;;;;;7.80;99.90;;;7.93;80.75;100355.19;5094518;28;19966;-69
2021/12/07 00:14:25;;;;;;;;;;;7.90;99.90;;;8.01;79.34;100373.59;5094521;28;19970;-70
2021/12/07 00:16:55;;;;;;;;;;;7.90;99.90;;;7.90;79.31;100377.97;5094172;28;19966;-70
2021/12/07 00:19:24;;;;;;;;;;;7.80;99.90;;;7.98;79.63;100379.72;5094389;28;19924;-71
2021/12/07 00:21:52;;;;;;;;;;;7.90;99.90;;;7.94;79.43;100375.34;5076165;28;20399;-70
2021/12/07 00:24:21;;;;;;;;;;;7.90;99.90;;;7.96;79.53;100384.13;5094593;28;20019;-71
2021/12/07 00:26:50;;;;;;;;;;;7.90;99.90;;;8.07;79.37;100392.88;5094179;28;20354;-70
2021/12/07 00:29:20;;;;;;;;;;;8.00;99.90;;;8.02;79.42;100394.66;5076021;28;19927;-70
2021/12/07 00:31:54;;;;;;;;;;;7.90;99.90;;;7.96;79.44;100399.03;5093780;28;20396;-70
2021/12/07 00:34:40;;;;;;;;;;;7.90;99.90;;;7.94;79.49;100398.16;5093917;28;19924;-72
2021/12/07 00:37:09;;;;;;;;;;;7.90;99.90;;;7.90;78.86;100404.31;5075965;28;19950;-72
2021/12/07 00:39:38;;;;;;;;;;;7.80;99.90;;;7.91;79.17;100401.69;5075826;28;20456;-72
2021/12/07 00:42:07;;;;;;;;;;;7.80;99.90;;;8.01;79.52;100403.41;5093707;28;20390;-72
2021/12/07 00:44:36;;;;;;;;;;;7.90;99.90;;;7.95;79.74;100400.81;5092899;28;20431;-72
2021/12/07 00:47:04;;;;;;;;;;;7.90;99.90;;;8.04;79.76;100419.22;5075680;28;19974;-72
2021/12/07 00:49:32;;;;;;;;;;;7.90;99.90;;;8.05;79.64;100423.59;5093859;28;19947;-72
2021/12/07 00:52:01;;;;;;;;;;;8.00;99.90;;;8.00;80.26;100401.69;5075664;28;19920;-72
2021/12/07 00:54:33;;;;;;;;;;;8.00;99.90;;;8.11;81.02;100425.34;5093475;28;20388;-72
2021/12/07 00:57:02;;;;;;;;;;;8.00;99.90;;;8.06;81.09;100424.50;5093747;28;19965;-72
2021/12/07 00:59:32;;;;;;;;;;;8.00;99.90;;;7.94;80.83;100433.28;5093764;28;19924;-72
2021/12/07 01:02:01;;;;;;;;;;;7.90;99.90;;;7.87;80.55;100435.94;5075270;28;20438;-72
2021/12/07 01:04:32;;;;;;;;;;;7.90;99.90;;;7.93;80.84;100447.34;5093960;28;19920;-72
2021/12/07 01:07:06;;;;;;;;;;;7.90;99.90;;;8.03;80.42;100456.09;5093503;28;19997;-71
2021/12/07 01:24:38;;;;;;;;;;;7.90;99.90;;;8.05;81.12;100468.38;5093461;28;20377;-71
2021/12/07 01:26:29;;;;;;;;;;;7.90;99.90;;;7.97;80.47;100477.19;5074852;28;19920;-65
2021/12/07 01:28:57;;;;;;;;;;;7.80;99.90;;;7.81;79.96;100471.03;5093278;28;19920;-65
2021/12/07 01:31:32;;;;;;;;;;;7.80;99.90;;;7.77;79.65;100476.28;5075161;28;19942;-66
2021/12/07 01:34:20;;;;;;;;;;;7.70;99.90;;;7.67;78.50;100480.66;5093333;28;19927;-66
2021/12/07 01:37:07;;;;;;;;;;;7.60;99.90;;;7.70;78.17;100485.94;5075428;28;19927;-66
2021/12/07 01:42:56;;;;;;;;;;;7.60;99.90;;;7.84;79.08;100514.91;5030489;28;19965;-66
2021/12/07 01:49:44;;;;;;;;;;;7.70;99.90;;;7.76;78.28;100528.03;5073483;28;19981;-66
2021/12/07 01:51:16;;;;;;;;;;;7.70;99.90;;;7.72;78.71;100528.94;5074945;28;19928;-65
2021/12/07 01:59:33;;;;;;;;;;;7.70;99.90;;;7.75;78.24;100539.47;5078990;28;19974;-64
2021/12/07 02:02:05;;;;;;;;;;;7.70;99.90;;;7.65;78.25;100526.28;5078926;28;19920;-64
2021/12/07 02:04:35;;;;;;;;;;;7.70;99.90;;;7.56;77.99;100506.09;5096628;28;20373;-65
2021/12/07 02:07:06;;;;;;;;;;;7.70;99.90;;;7.81;78.28;100531.59;5078552;28;20022;-65
2021/12/07 02:09:39;;;;;;;;;;;7.70;99.90;;;7.84;78.25;100549.16;5097055;28;19920;-65
2021/12/07 02:12:09;;;;;;;;;;;7.70;99.90;;;7.81;78.39;100554.38;5078651;28;20393;-65
2021/12/07 02:14:37;;;;;;;;;;;7.70;99.90;;;7.76;79.12;100564.91;5078355;28;19927;-65
2021/12/07 02:17:08;;;;;;;;;;;7.70;99.90;;;7.74;78.90;100556.13;5078282;28;20323;-65
2021/12/07 02:19:40;;;;;;;;;;;7.70;99.90;;;7.81;78.89;100583.34;5078313;28;19919;-64
2021/12/07 02:22:11;;;;;;;;;;;7.70;99.90;;;7.72;79.07;100570.19;5078261;28;19920;-65
2021/12/07 02:24:47;;;;;;;;;;;7.60;99.90;;;7.62;79.28;100566.66;5078276;28;19920;-65
2021/12/07 02:27:15;;;;;;;;;;;7.60;99.90;;;7.62;79.59;100566.66;5096312;28;19920;-64
2021/12/07 02:29:43;;;;;;;;;;;7.60;99.90;;;7.64;79.04;100564.00;5096405;28;20006;-64
2021/12/07 02:32:12;;;;;;;;;;;7.50;99.90;;;7.68;79.04;100579.81;5078191;28;20011;-64
2021/12/07 02:34:52;;;;;;;;;;;7.60;99.90;;;7.72;79.39;100580.72;5077977;28;19927;-65
2021/12/07 02:37:23;;;;;;;;;;;7.60;99.90;;;7.71;79.45;100582.44;5078122;28;19924;-65
2021/12/07 02:39:53;;;;;;;;;;;7.70;99.90;;;7.75;79.00;100586.84;5096539;28;19920;-66
2021/12/07 02:42:22;;;;;;;;;;;7.70;99.90;;;7.89;78.72;100586.88;5077635;28;20023;-64
2021/12/07 02:44:50;;;;;;;;;;;7.80;99.90;;;7.90;78.16;100589.50;5077868;28;20007;-64
2021/12/07 02:47:19;;;;;;;;;;;7.80;99.90;;;7.80;78.51;100595.63;5077879;28;19920;-65
2021/12/07 02:49:49;;;;;;;;;;;7.70;99.90;;;7.94;77.96;100596.53;5077747;28;19959;-65
2021/12/07 02:52:20;;;;;;;;;;;7.80;99.90;;;8.01;77.73;100598.28;5077609;28;20286;-65
2021/12/07 02:54:50;;;;;;;;;;;7.90;99.90;;;8.01;78.12;100594.81;5077626;28;19978;-65
2021/12/07 02:57:26;;;;;;;;;;;7.90;99.90;;;8.01;77.99;100606.19;5077414;28;19965;-65
2021/12/07 03:00:02;;;;;;;;;;;7.90;99.90;;;7.88;78.13;100608.81;5077515;28;20445;-65
2021/12/07 03:02:35;;;;;;;;;;;7.90;99.90;;;7.95;77.91;100614.13;5077533;28;20377;-65
2021/12/07 03:05:14;;;;;;;;;;;7.80;99.90;;;8.04;77.58;100608.84;5077550;28;19920;-65
2021/12/07 03:07:54;;;;;;;;;;;7.90;99.90;;;8.03;78.24;100622.88;5076710;28;19920;-65
2021/12/07 03:27:25;;;;;;;;;;;7.90;99.90;;;8.04;78.15;100639.56;5077158;28;19927;-65
2021/12/07 03:29:54;;;;;;;;;;;7.90;99.90;;;7.94;78.54;100648.31;5077188;28;19927;-65
2021/12/07 03:32:22;;;;;;;;;;;7.90;99.90;;;7.80;78.33;100614.06;5076803;28;19927;-65
2021/12/07 03:34:51;;;;;;;;;;;7.90;99.90;;;7.96;78.09;100636.03;5095003;28;20399;-65
2021/12/07 03:37:19;;;;;;;;;;;7.90;99.90;;;7.96;78.34;100650.09;5076843;28;19969;-65
2021/12/07 03:39:47;;;;;;;;;;;7.90;99.90;;;7.91;78.30;100632.53;5076680;28;20023;-65
2021/12/07 03:42:16;;;;;;;;;;;7.90;99.90;;;8.08;78.36;100649.25;5076690;28;20404;-65
2021/12/07 03:44:45;;;;;;;;;;;8.00;99.90;;;8.07;78.02;100647.50;5076649;28;19947;-65
2021/12/07 03:47:14;;;;;;;;;;;8.00;99.90;;;7.94;78.11;100636.03;5094474;28;19927;-65
2021/12/07 03:49:42;;;;;;;;;;;8.00;99.90;;;8.05;77.53;100665.91;5076601;28;19920;-65
2021/12/07 03:52:11;;;;;;;;;;;8.00;99.90;;;8.03;77.71;100656.25;5076582;28;19966;-65
2021/12/07 03:54:40;;;;;;;;;;;8.00;99.90;;;7.85;77.73;100624.59;5094675;28;19950;-65
2021/12/07 03:57:08;;;;;;;;;;;8.00;99.90;;;8.04;77.99;100656.25;5094632;28;20014;-65
2021/12/07 03:59:37;;;;;;;;;;;7.90;99.90;;;7.46;77.95;100548.16;5094131;28;19970;-65
2021/12/07 04:02:08;;;;;;;;;;;7.90;99.90;;;7.97;78.07;100669.41;5076525;28;19931;-65
2021/12/07 04:04:38;;;;;;;;;;;7.80;99.90;;;7.94;78.33;100658.84;5076132;28;19920;-65
2021/12/07 04:07:07;;;;;;;;;;;7.90;99.90;;;8.01;77.93;100663.28;5076218;28;19982;-65
2021/12/07 04:09:35;;;;;;;;;;;7.90;99.90;;;7.97;78.22;100669.41;5076206;28;19920;-65
2021/12/07 04:12:04;;;;;;;;;;;7.90;99.90;;;8.05;78.10;100668.53;5094015;28;20252;-64
2021/12/07 04:14:33;;;;;;;;;;;7.90;99.90;;;7.80;77.82;100637.75;5075933;28;19969;-65
2021/12/07 04:17:01;;;;;;;;;;;7.90;99.90;;;7.94;77.47;100675.53;5094146;28;19949;-65
2021/12/07 04:19:31;;;;;;;;;;;7.90;99.90;;;7.99;77.20;100679.06;5074918;28;20323;-65
2021/12/07 04:22:00;;;;;;;;;;;7.90;99.90;;;8.02;77.04;100688.72;5094078;28;20335;-65
2021/12/07 04:24:28;;;;;;;;;;;7.90;99.90;;;8.05;77.27;100684.34;5093816;28;20364;-64
2021/12/07 04:26:56;;;;;;;;;;;8.00;99.90;;;8.06;76.74;100678.22;5093601;28;20362;-65
2021/12/07 04:29:24;;;;;;;;;;;8.00;99.90;;;7.61;76.52;100596.44;5093673;28;20330;-64
2021/12/07 04:31:53;;;;;;;;;;;8.00;99.90;;;8.17;76.49;100680.84;5093790;28;19926;-65
2021/12/07 04:34:21;;;;;;;;;;;8.10;99.90;;;8.16;76.26;100694.91;5093645;28;19969;-65
2021/12/07 04:36:51;;;;;;;;;;;8.10;99.90;;;8.15;76.96;100686.13;5093618;28;19920;-65
2021/12/07 04:39:19;;;;;;;;;;;8.10;99.90;;;8.10;77.13;100687.88;5093555;28;19920;-66
2021/12/07 04:41:49;;;;;;;;;;;8.10;99.90;;;8.17;76.46;100681.75;5093504;28;20327;-65
2021/12/07 04:44:17;;;;;;;;;;;8.10;99.90;;;8.06;76.12;100674.69;5093652;28;20337;-65
2021/12/07 04:46:53;;;;;;;;;;;8.00;99.90;;;8.03;75.85;100682.59;5093630;28;19954;-65
2021/12/07 04:57:51;;;;;;;;;;;7.90;99.90;;;7.92;75.56;100697.47;5092306;28;20274;-65
2021/12/07 05:00:22;;;;;;;;;;;7.90;99.90;;;7.96;75.55;100697.50;5093299;28;19954;-65
2021/12/07 05:02:55;;;;;;;;;;;7.80;99.90;;;8.05;75.96;100710.69;5093253;28;19928;-65
2021/12/07 05:05:29;;;;;;;;;;;7.90;99.90;;;8.13;75.28;100718.59;5093463;28;19951;-65
2021/12/07 05:08:02;;;;;;;;;;;8.00;99.90;;;7.97;75.65;100732.59;5075142;28;20281;-63
2021/12/07 05:10:34;;;;;;;;;;;7.90;99.90;;;8.05;74.92;100712.44;5093599;28;20037;-64
2021/12/07 05:16:07;;;;;;;;;;;8.00;99.90;;;7.70;74.63;100643.88;5093354;28;19924;-64
2021/12/07 05:24:08;;;;;;;;;;;7.90;99.90;;;7.91;74.78;100736.09;5092966;28;19942;-62
2021/12/07 05:37:55;;;;;;;;;;;7.70;99.90;;;8.05;74.63;100752.81;5079285;28;19919;-63
2021/12/07 05:40:27;;;;;;;;;;;7.90;99.90;;;7.97;74.91;100744.03;5097091;28;19971;-63
2021/12/07 05:42:56;;;;;;;;;;;7.80;99.90;;;7.91;75.63;100746.63;5097599;28;19920;-63
2021/12/07 05:45:30;;;;;;;;;;;7.80;99.90;;;8.02;74.97;100744.03;5097025;28;19973;-63
2021/12/07 05:47:59;;;;;;;;;;;7.80;99.90;;;8.02;74.77;100718.59;5097388;28;19924;-64
2021/12/07 05:50:30;;;;;;;;;;;7.90;99.90;;;8.07;74.57;100731.78;5096924;28;19974;-64
2021/12/07 05:52:58;;;;;;;;;;;7.90;99.90;;;8.18;74.31;100738.84;5078553;28;19985;-64
2021/12/07 05:55:28;;;;;;;;;;;8.00;99.90;;;8.17;74.15;100723.88;5097010;28;19924;-63
2021/12/07 05:57:56;;;;;;;;;;;8.00;99.90;;;8.16;73.57;100698.44;5096682;28;19924;-63
2021/12/07 06:00:27;;;;;;;;;;;8.20;99.90;;;8.47;73.21;100741.56;5097260;28;19986;-63
2021/12/07 06:02:58;;;;;;;;;;;8.30;99.90;;;8.50;72.83;100743.31;5096735;28;19920;-63
2021/12/07 06:05:29;;;;;;;;;;;8.40;99.90;;;8.40;73.08;100738.94;5096956;28;19928;-63
2021/12/07 06:07:57;;;;;;;;;;;8.30;99.90;;;8.47;72.68;100767.94;5096308;28;19969;-63
2021/12/07 06:10:26;;;;;;;;;;;8.40;99.90;;;8.50;72.58;100743.31;5078462;28;19966;-63
2021/12/07 06:12:55;;;;;;;;;;;8.40;99.90;;;8.60;72.59;100753.00;5096763;28;20266;-63
2021/12/07 06:15:26;;;;;;;;;;;8.50;99.90;;;8.65;72.52;100751.28;5096416;28;19920;-63
2021/12/07 06:17:54;;;;;;;;;;;8.60;99.90;;;8.68;73.23;100762.69;5096592;28;19920;-64
2021/12/07 06:20:25;;;;;;;;;;;8.60;99.90;;;8.46;73.20;100721.34;5096539;28;19959;-63
2021/12/07 06:23:11;;;;;;;;;;;8.60;99.90;;;8.70;73.36;100754.78;5096303;28;20094;-64
2021/12/07 06:25:40;;;;;;;;;;;8.60;99.90;;;8.64;73.15;100745.09;5096215;28;20002;-63
2021/12/07 06:28:10;;;;;;;;;;;8.60;99.90;;;8.65;73.30;100741.59;5096207;28;19985;-64
2021/12/07 06:30:42;;;;;;;;;;;8.50;99.90;;;8.64;73.57;100741.59;5096373;28;19920;-63
2021/12/07 06:33:11;;;;;;;;;;;8.50;99.90;;;8.60;73.49;100745.09;5078003;28;20393;-64
2021/12/07 06:35:39;;;;;;;;;;;8.50;99.90;;;8.58;73.67;100758.28;5077938;28;19982;-63
2021/12/07 06:38:08;;;;;;;;;;;8.50;99.90;;;8.48;73.58;100737.19;5095884;28;20378;-63
2021/12/07 06:40:36;;;;;;;;;;;8.50;99.90;;;8.32;74.14;100716.94;5096490;28;19941;-64
2021/12/07 06:43:05;;;;;;;;;;;8.40;99.90;;;8.55;74.20;100758.28;5094626;28;19952;-63
2021/12/07 06:45:34;;;;;;;;;;;8.40;99.90;;;8.55;74.24;100753.00;5096016;28;19950;-63
2021/12/07 06:48:03;;;;;;;;;;;8.40;99.90;;;8.45;74.35;100751.22;5095687;28;19920;-63
2021/12/07 06:50:31;;;;;;;;;;;8.30;99.90;;;8.50;74.55;100752.09;5095741;28;20543;-63
2021/12/07 06:52:59;;;;;;;;;;;8.30;99.90;;;8.43;74.01;100760.00;5095585;28;19927;-63
2021/12/07 06:55:28;;;;;;;;;;;8.30;99.90;;;8.34;74.41;100745.06;5077669;28;19920;-63
2021/12/07 06:57:56;;;;;;;;;;;8.20;99.90;;;8.21;74.38;100728.28;5096021;28;19949;-63
2021/12/07 07:00:25;;;;;;;;;;;8.20;99.90;;;7.90;74.91;100683.41;5095700;28;19927;-63
2021/12/07 07:02:54;;;;;;;;;;;8.20;99.90;;;8.25;74.63;100750.28;5077330;28;19919;-64
2021/12/07 07:05:23;;;;;;;;;;;8.10;99.90;;;8.19;74.99;100787.13;5095521;28;19920;-64
2021/12/07 07:07:51;;;;;;;;;;;8.10;99.90;;;8.16;74.96;100758.13;5095291;28;19920;-63
2021/12/07 07:10:20;;;;;;;;;;;8.10;99.90;;;8.10;74.79;100766.91;5077259;28;20061;-63
2021/12/07 07:12:48;;;;;;;;;;;8.00;99.90;;;8.01;74.70;100752.81;5095198;28;19923;-64
2021/12/07 07:15:17;;;;;;;;;;;7.90;99.90;;;7.85;75.14;100733.44;5095356;28;19988;-63
2021/12/07 07:17:45;;;;;;;;;;;7.90;99.90;;;7.92;75.45;100748.38;5095249;28;20396;-63
2021/12/07 07:20:17;;;;;;;;;;;7.80;99.90;;;7.89;75.86;100739.59;5094864;28;19966;-64
2021/12/07 07:22:46;;;;;;;;;;;7.80;99.90;;;7.91;75.90;100738.75;5095646;28;19920;-64
2021/12/07 07:25:15;;;;;;;;;;;7.80;99.90;;;7.89;75.26;100724.69;5095697;28;19974;-64
2021/12/07 07:27:43;;;;;;;;;;;7.80;99.90;;;7.79;75.17;100720.25;5095147;28;19927;-63
2021/12/07 07:30:14;;;;;;;;;;;7.70;99.90;;;7.75;75.20;100713.22;5095145;28;20359;-63
2021/12/07 07:32:42;;;;;;;;;;;7.70;99.90;;;7.75;75.70;100717.59;5095228;28;20276;-63
2021/12/07 07:35:11;;;;;;;;;;;7.70;99.90;;;7.67;75.59;100717.56;5076817;28;19973;-64
2021/12/07 07:37:41;;;;;;;;;;;7.60;99.90;;;7.66;76.57;100713.19;5094861;28;19919;-63
2021/12/07 07:40:12;;;;;;;;;;;7.60;99.90;;;7.64;76.70;100720.19;5095087;28;19990;-63
2021/12/07 07:42:41;;;;;;;;;;;7.50;99.90;;;7.66;76.34;100723.72;5094794;28;19948;-64
2021/12/07 07:45:30;;;;;;;;;;;7.50;99.90;;;7.66;76.70;100725.44;5080067;28;19924;-63
2021/12/07 07:47:58;;;;;;;;;;;7.50;99.90;;;7.62;76.63;100719.31;5076600;28;20258;-63
2021/12/07 07:50:27;;;;;;;;;;;7.50;99.90;;;7.64;76.57;100724.56;5094390;28;20346;-63
2021/12/07 07:52:56;;;;;;;;;;;7.50;99.90;;;7.69;76.47;100725.44;5094660;28;19927;-63
2021/12/07 07:55:24;;;;;;;;;;;7.50;99.90;;;7.69;76.60;100736.88;5094552;28;19973;-63
2021/12/07 07:57:53;;;;;;;;;;;7.50;99.90;;;7.73;77.12;100727.22;5094714;28;19931;-64
2021/12/07 08:00:22;;;;;;;;;;;7.60;99.90;;;7.34;76.63;100634.97;5094320;28;20002;-63
2021/12/07 08:02:50;;;;;;;;;;;7.70;99.90;;;7.94;76.50;100733.47;5094205;28;20328;-63
2021/12/07 08:05:19;;;;;;;;;;;7.80;99.90;;;7.99;76.14;100744.88;5076470;28;19924;-67
2021/12/07 08:07:48;;;;;;;;;;;7.90;99.90;;;8.06;75.92;100751.97;5076261;28;19920;-66
2021/12/07 08:10:20;;;;;;;;;;;7.90;99.90;;;8.08;75.33;100747.56;5093839;28;20014;-65
2021/12/07 08:12:49;;;;;;;;;;;7.90;99.90;;;8.20;75.21;100744.09;5093920;28;19992;-66
2021/12/07 08:15:18;;;;;;;;;;;8.00;99.90;;;8.21;74.40;100744.09;5076127;28;19931;-66
2021/12/07 08:17:47;;;;;;;;;;;8.00;99.90;;;8.15;74.23;100746.72;5094007;28;19973;-65
2021/12/07 08:20:15;;;;;;;;;;;8.00;99.90;;;8.03;74.86;100738.75;5094238;28;19927;-65
2021/12/07 08:22:43;;;;;;;;;;;8.00;99.90;;;8.02;75.08;100747.56;5076032;28;19933;-66
2021/12/07 08:25:11;;;;;;;;;;;7.90;99.90;;;8.00;75.60;100733.50;5094446;28;19956;-64
2021/12/07 08:27:41;;;;;;;;;;;7.90;99.90;;;7.99;76.20;100736.97;5094164;28;20332;-64
2021/12/07 08:30:11;;;;;;;;;;;7.90;99.90;;;7.36;76.51;100634.06;5093706;28;20375;-64
2021/12/07 08:32:44;;;;;;;;;;;7.90;99.90;;;7.95;76.87;100735.25;5075739;28;19977;-65
2021/12/07 08:35:14;;;;;;;;;;;7.90;99.90;;;7.41;77.37;100645.50;5094068;28;19930;-65
2021/12/07 08:37:44;;;;;;;;;;;7.90;99.90;;;8.03;77.33;100736.13;5093913;28;19920;-68
2021/12/07 08:40:12;;;;;;;;;;;7.90;99.90;;;7.99;77.39;100729.09;5093878;28;20352;-66
2021/12/07 08:42:42;;;;;;;;;;;8.00;99.90;;;8.20;77.68;100739.72;5093559;28;20045;-65
2021/12/07 08:45:11;;;;;;;;;;;8.10;99.90;;;8.29;77.20;100740.63;5093547;28;19920;-66
2021/12/07 08:47:39;;;;;;;;;;;8.10;99.90;;;8.32;77.06;100735.38;5093563;28;19951;-65
2021/12/07 08:50:13;;;;;;;;;;;8.20;99.90;;;8.54;77.69;100742.44;5093773;28;19924;-65
2021/12/07 08:52:41;;;;;;;;;;;8.40;99.90;;;8.61;76.49;100741.59;5093757;28;19943;-65
2021/12/07 09:00:46;;;;;;;;;;;8.90;99.90;;;9.20;76.49;100744.22;5093635;28;19923;-65
2021/12/07 09:03:15;;;;;;;;;;;9.10;99.90;;;9.46;75.83;100719.56;5093029;28;19963;-65
2021/12/07 09:05:43;;;;;;;;;;;9.50;99.90;;;9.83;74.58;100734.41;5092933;28;19920;-65
2021/12/07 09:08:11;;;;;;;;;;;9.70;99.90;;;10.15;72.97;100736.06;5075295;28;20426;-65
2021/12/07 09:10:40;;;;;;;;;;;10.00;99.90;;;10.44;71.80;100728.84;5093410;28;19931;-65
2021/12/07 09:13:09;;;;;;;;;;;10.30;99.90;;;10.68;70.90;100739.28;5075320;28;20337;-66
2021/12/07 09:15:39;;;;;;;;;;;10.60;99.90;;;10.73;69.92;100716.31;5075439;28;19920;-66
2021/12/07 09:18:08;;;;;;;;;;;10.80;99.90;;;10.98;69.84;100735.50;5092955;28;19974;-66
2021/12/07 09:20:36;;;;;;;;;;;10.90;99.90;;;11.25;68.83;100738.78;5092978;28;19920;-66
2021/12/07 09:23:05;;;;;;;;;;;11.20;99.90;;;11.26;67.56;100726.44;5092815;28;19970;-66
2021/12/07 09:25:34;;;;;;;;;;;11.30;99.90;;;11.41;67.36;100715.69;5092913;28;19920;-66
2021/12/07 09:28:02;;;;;;;;;;;11.40;99.90;;;11.61;66.77;100706.63;5093015;28;19959;-66
2021/12/07 09:30:31;;;;;;;;;;;11.60;99.90;;;11.99;66.23;100737.13;5092929;28;19920;-66
2021/12/07 09:33:00;;;;;;;;;;;11.90;99.90;;;12.11;64.96;100732.56;5093006;28;19920;-66
2021/12/07 09:35:28;;;;;;;;;;;12.10;99.90;;;12.27;64.46;100742.06;5092967;28;20015;-66
2021/12/07 09:37:57;;;;;;;;;;;12.20;99.90;;;12.32;63.66;100752.63;5075269;28;19969;-67
2021/12/07 09:40:28;;;;;;;;;;;12.30;99.90;;;12.05;63.86;100745.91;5093151;28;20428;-66
2021/12/07 09:42:57;;;;;;;;;;;12.10;99.90;;;11.48;63.96;100638.81;5092786;28;19927;-66
2021/12/07 09:45:30;;;;;;;;;;;12.10;99.90;;;12.28;63.74;100750.91;5093094;28;20010;-66
2021/12/07 09:48:01;;;;;;;;;;;12.20;99.90;;;12.45;63.32;100754.19;5092762;28;19920;-66
2021/12/07 09:50:30;;;;;;;;;;;12.40;99.90;;;12.57;63.10;100748.72;5092763;28;20322;-66
2021/12/07 09:52:58;;;;;;;;;;;12.50;99.90;;;12.73;62.28;100755.56;5092665;28;19951;-66
2021/12/07 09:55:28;;;;;;;;;;;12.60;99.90;;;12.88;62.19;100736.75;5092673;28;19965;-66
2021/12/07 09:57:57;;;;;;;;;;;12.90;99.90;;;13.11;60.72;100771.81;5075072;28;19991;-66
2021/12/07 10:00:26;;;;;;;;;;;13.00;99.90;;;13.08;60.51;100749.75;5092661;28;20003;-66
2021/12/07 10:02:55;;;;;;;;;;;13.10;99.90;;;13.20;59.47;100753.06;5092481;28;19989;-66
2021/12/07 10:05:27;;;;;;;;;;;13.10;99.90;;;13.23;59.22;100746.81;5074812;28;20383;-66
2021/12/07 10:07:55;;;;;;;;;;;13.10;99.90;;;13.26;58.74;100752.94;5092513;28;19942;-67
2021/12/07 10:10:26;;;;;;;;;;;13.10;99.90;;;13.26;58.68;100752.06;5092765;28;19919;-67
2021/12/07 10:12:54;;;;;;;;;;;13.10;99.90;;;13.33;58.66;100744.00;5092851;28;19920;-67
2021/12/07 10:15:23;;;;;;;;;;;13.20;99.90;;;13.49;58.92;100734.81;5092547;28;19927;-66
2021/12/07 10:18:07;;;;;;;;;;;13.30;99.90;;;13.55;57.58;100745.34;5094500;28;19973;-67
2021/12/07 10:20:56;;;;;;;;;;;13.50;99.90;;;13.52;58.28;100721.50;5096573;28;20304;-66
2021/12/07 10:23:29;;;;;;;;;;;13.50;99.90;;;13.64;57.93;100711.53;5096245;28;19928;-66
2021/12/07 10:26:02;;;;;;;;;;;13.50;99.90;;;13.53;57.66;100699.31;5096495;28;19927;-67
2021/12/07 10:28:35;;;;;;;;;;;13.50;99.90;;;13.51;57.92;100705.59;5096181;28;20335;-66
2021/12/07 10:31:15;;;;;;;;;;;13.40;99.90;;;13.45;58.37;100693.25;5096333;28;19997;-66
2021/12/07 10:33:46;;;;;;;;;;;13.30;99.90;;;13.40;58.53;100675.66;5096116;28;20003;-66
2021/12/07 10:36:18;;;;;;;;;;;13.30;99.90;;;13.07;59.18;100650.59;5078108;28;19920;-67
2021/12/07 10:38:49;;;;;;;;;;;13.20;99.90;;;12.97;59.78;100680.84;5096017;28;19974;-66
2021/12/07 10:41:21;;;;;;;;;;;13.00;99.90;;;13.01;59.35;100671.03;5095796;28;19965;-66
2021/12/07 10:44:07;;;;;;;;;;;12.90;99.90;;;13.01;59.17;100671.03;5095869;28;20289;-66
2021/12/07 10:46:39;;;;;;;;;;;12.90;99.90;;;12.82;58.88;100662.53;5096107;28;19926;-66
2021/12/07 10:49:33;;;;;;;;;;;12.70;99.90;;;12.81;59.27;100657.25;5096147;28;20022;-66
2021/12/07 10:52:12;;;;;;;;;;;12.70;99.90;;;12.84;58.70;100668.69;5093671;28;20323;-66
2021/12/07 10:54:46;;;;;;;;;;;12.70;99.90;;;12.70;58.67;100671.56;5096166;28;19919;-66
2021/12/07 10:57:16;;;;;;;;;;;12.60;99.90;;;12.57;59.24;100659.41;5078303;28;19920;-66
2021/12/07 10:59:54;;;;;;;;;;;12.50;99.90;;;12.71;60.28;100688.38;5095866;28;19920;-66
2021/12/07 11:02:24;;;;;;;;;;;12.50;99.90;;;12.56;59.29;100678.00;5078139;28;19925;-67
2021/12/07 11:04:52;;;;;;;;;;;12.60;99.90;;;12.50;61.00;100688.72;5095648;28;19946;-67
2021/12/07 11:07:24;;;;;;;;;;;12.40;99.90;;;12.32;60.82;100667.75;5095857;28;19920;-66
2021/12/07 11:10:00;;;;;;;;;;;12.20;99.90;;;11.92;61.19;100653.31;5095928;28;19930;-67
2021/12/07 11:12:35;;;;;;;;;;;11.90;99.90;;;11.88;61.24;100659.53;5096161;28;19919;-66
2021/12/07 11:15:12;;;;;;;;;;;11.80;99.90;;;11.70;61.67;100656.25;5096419;28;19923;-67
2021/12/07 11:17:40;;;;;;;;;;;11.60;99.90;;;11.51;61.75;100644.09;5095789;28;20381;-67
2021/12/07 11:20:10;;;;;;;;;;;11.50;99.90;;;11.24;62.34;100630.28;5077685;28;19952;-66
2021/12/07 11:22:43;;;;;;;;;;;11.20;99.90;;;11.17;63.05;100642.69;5077761;28;19920;-67
2021/12/07 11:25:21;;;;;;;;;;;11.00;99.90;;;10.89;62.91;100635.94;5095912;28;20347;-66
2021/12/07 11:30:35;;;;;;;;;;;10.50;99.90;;;10.70;64.35;100610.53;5095009;28;19920;-67
2021/12/07 11:33:03;;;;;;;;;;;10.50;99.90;;;10.55;65.51;100610.69;5095571;28;20035;-66
2021/12/07 11:35:34;;;;;;;;;;;10.40;99.90;;;10.60;65.10;100611.50;5077373;28;19920;-67
2021/12/07 11:38:06;;;;;;;;;;;10.50;99.90;;;10.58;64.95;100605.34;5095145;28;19973;-67
2021/12/07 11:40:36;;;;;;;;;;;10.50;99.90;;;10.31;64.89;100584.44;5095307;28;19920;-66
2021/12/07 11:43:16;;;;;;;;;;;10.30;99.90;;;10.36;65.08;100577.31;5094997;28;19920;-66
2021/12/07 11:45:45;;;;;;;;;;;10.20;99.90;;;10.14;64.14;100574.00;5095187;28;19927;-66
2021/12/07 11:48:17;;;;;;;;;;;10.20;99.90;;;9.98;64.04;100582.88;5077094;28;19920;-66
2021/12/07 11:50:48;;;;;;;;;;;10.00;99.90;;;10.14;65.00;100562.53;5094886;28;19935;-66
2021/12/07 11:53:20;;;;;;;;;;;10.00;99.90;;;9.53;63.61;100488.09;5095064;28;20430;-66
2021/12/07 11:55:50;;;;;;;;;;;9.90;99.90;;;9.92;64.83;100519.50;5095339;28;20285;-65
2021/12/07 11:58:20;;;;;;;;;;;9.80;99.90;;;9.39;65.18;100525.13;5094934;28;19920;-66
2021/12/07 12:00:51;;;;;;;;;;;9.50;99.90;;;9.25;66.05;100524.34;5094815;28;19981;-66
2021/12/07 12:03:22;;;;;;;;;;;9.40;99.90;;;9.07;67.23;100482.19;5094793;28;19920;-66
2021/12/07 12:05:51;;;;;;;;;;;9.20;99.90;;;9.06;67.06;100520.00;5095098;28;20328;-66
2021/12/07 12:08:22;;;;;;;;;;;9.10;99.90;;;8.68;68.04;100432.25;5094665;28;19927;-65
2021/12/07 12:10:57;;;;;;;;;;;9.00;99.90;;;8.89;68.20;100482.25;5094638;28;19931;-65
2021/12/07 12:13:39;;;;;;;;;;;8.90;99.90;;;9.12;68.10;100495.38;5094860;28;20019;-64
2021/12/07 12:16:18;;;;;;;;;;;9.00;99.90;;;9.21;67.96;100479.50;5094895;28;19920;-63
2021/12/07 12:18:54;;;;;;;;;;;9.10;99.90;;;9.25;67.98;100492.69;5076534;28;20018;-65
2021/12/07 12:21:29;;;;;;;;;;;9.10;99.90;;;9.39;68.13;100484.69;5094517;28;20335;-63
2021/12/07 12:24:08;;;;;;;;;;;9.20;99.90;;;9.44;67.86;100474.97;5094688;28;19924;-67
2021/12/07 12:26:37;;;;;;;;;;;9.30;99.90;;;9.15;67.59;100484.81;5094792;28;19929;-64
2021/12/07 12:29:17;;;;;;;;;;;9.20;99.90;;;8.89;67.54;100472.59;5094329;28;19920;-64
2021/12/07 12:31:49;;;;;;;;;;;9.00;99.90;;;8.59;68.57;100434.94;5094005;28;19973;-64
2021/12/07 12:34:21;;;;;;;;;;;8.70;99.90;;;8.12;70.73;100421.84;5094094;28;19973;-63
2021/12/07 12:37:03;;;;;;;;;;;8.20;99.90;;;7.85;71.34;100446.47;5094387;28;19973;-64
2021/12/07 12:39:54;;;;;;;;;;;7.90;99.90;;;7.96;72.10;100430.63;5094092;28;20377;-65
2021/12/07 12:42:31;;;;;;;;;;;7.80;99.90;;;7.94;72.23;100399.06;5093659;28;20290;-65
2021/12/07 12:45:11;;;;;;;;;;;7.90;99.90;;;8.08;72.87;100405.19;5094157;28;19920;-65
2021/12/07 12:47:41;;;;;;;;;;;8.00;99.90;;;7.78;72.81;100399.94;5094233;28;20327;-63
2021/12/07 12:50:13;;;;;;;;;;;7.80;99.90;;;7.78;72.96;100402.56;5094122;28;19965;-62
2021/12/07 12:52:44;;;;;;;;;;;7.80;99.90;;;7.66;73.93;100381.53;5094227;28;20326;-63
2021/12/07 12:55:39;;;;;;;;;;;7.60;99.90;;;7.58;74.48;100383.31;5094006;28;20277;-62
2021/12/07 12:58:12;;;;;;;;;;;7.60;99.90;;;7.42;75.43;100347.34;5094776;28;19957;-62
2021/12/07 13:01:10;;;;;;;;;;;7.50;99.90;;;7.13;75.97;100354.34;5075810;28;19920;-62